Terminal Aerodrome Forecast
Issued by NWS

Home | Current Version | Previous Version | Text Only | Print | Product List | Glossary On
Versions: 1 2 3 4 5 6 7 8 9 10 11 12 13
274
FTUS42 KTBW 200520
TAFRSW
TAF
KRSW 200520Z 2006/2106 06005KT P6SM FEW100
     FM201500 08007KT P6SM FEW035 SCT100
     FM202100 05008KT P6SM VCSH SCT040 SCT250
     FM210100 06004KT P6SM FEW050 SCT090=

USA.gov is the U.S. government's official web portal to all federal, state and local government web resources and services.